Valhermoso Sp, Alabama
Current Conditions -  °F | °C
As of 10:53 AM on Tuesday 27 Jan 2015 (Local Time) from KHSV Reporting Station
Scattered Clouds Scattered Clouds  
Wind Chill: 50°   Ceiling: Unl
Heat Index: 50°   Visibility: 10mi
Dew Point: 34°   Wind: 13mph
Humidity: 54%   Direction: 330°NNW
Pressure: 30.05"   Gusts: NA
Location:  34.5494°N, 86.6929°W
Report Text: KHSV 271653Z 33011KT 10SM SCT032 10/01 A3005 RMK AO2 SLP176 T01000011
Loading
Personal Weather Stations






























Interactive Weather Map New forecast layout! Learn more

10-Day Weather Forecast

Advertisements
Track Severe Weather on mobile